KJBR

Jonesboro Municipal Airport

Jonesboro, Arkansas, USA
METAR KJBR 181301Z AUTO 00000KT 3SM BR CLR 02/00 A3021 RMK AO2 T00170000
Observed Flight Rules
Dec-18 @ 13:01 UTC (22 minutes ago) Marginal Visual Flight Rules
Visibility Clouds Conditions
3 miles
  • Clear skies
  • Mist
Temperatures Readings
Current 2°C / 36°F
Dewpoint 0°C / 32°F
Humidity 87%
Altimeter 30.21" Hg
Pressure 1023 hPa
Elevation 79
METAR KJBR 181301Z AUTO 00000KT 3SM BR CLR 02/00 A3021 RMK AO2 T00170000
Observed Flight Rules
Dec-18 @ 13:01 UTC
(22 minutes ago)
MVFR
Clouds
  • Clear skies
Conditions
  • Mist
Temperature Dewpoint
2°C / 36°F 0°C / 32°F
Humidity Altimeter Pressure
87% 30.21" Hg 1023 hPa